sensor_id;sensor_type;location;lat;lon;timestamp;P1;durP1;ratioP1;P2;durP2;ratioP2
69434;SDS011;56625;54.322;18.582;2022-09-28T00:03:42;4.80;;;1.30;;
69434;SDS011;56625;54.322;18.582;2022-09-28T00:06:11;4.90;;;1.50;;
69434;SDS011;56625;54.322;18.582;2022-09-28T00:08:39;5.00;;;1.30;;
69434;SDS011;56625;54.322;18.582;2022-09-28T00:11:07;5.10;;;1.60;;
69434;SDS011;56625;54.322;18.582;2022-09-28T00:13:38;5.40;;;1.50;;
69434;SDS011;56625;54.322;18.582;2022-09-28T00:16:08;4.30;;;1.20;;
69434;SDS011;56625;54.322;18.582;2022-09-28T00:18:37;5.20;;;1.30;;
69434;SDS011;56625;54.322;18.582;2022-09-28T00:21:09;4.80;;;1.40;;
69434;SDS011;56625;54.322;18.582;2022-09-28T00:23:38;5.50;;;1.40;;
69434;SDS011;56625;54.322;18.582;2022-09-28T00:26:27;4.70;;;1.60;;
69434;SDS011;56625;54.322;18.582;2022-09-28T00:28:57;5.30;;;1.40;;
69434;SDS011;56625;54.322;18.582;2022-09-28T00:31:30;4.60;;;1.30;;
69434;SDS011;56625;54.322;18.582;2022-09-28T00:34:00;5.00;;;1.50;;
69434;SDS011;56625;54.322;18.582;2022-09-28T00:36:28;5.20;;;1.50;;
69434;SDS011;56625;54.322;18.582;2022-09-28T00:38:58;6.00;;;1.60;;
69434;SDS011;56625;54.322;18.582;2022-09-28T00:41:27;5.30;;;1.40;;
69434;SDS011;56625;54.322;18.582;2022-09-28T00:44:34;4.10;;;1.20;;
69434;SDS011;56625;54.322;18.582;2022-09-28T00:52:32;5.30;;;1.60;;
69434;SDS011;56625;54.322;18.582;2022-09-28T00:55:07;4.50;;;1.60;;
69434;SDS011;56625;54.322;18.582;2022-09-28T00:57:39;5.60;;;1.70;;
69434;SDS011;56625;54.322;18.582;2022-09-28T01:00:10;6.10;;;1.90;;
69434;SDS011;56625;54.322;18.582;2022-09-28T01:02:37;6.50;;;2.10;;
69434;SDS011;56625;54.322;18.582;2022-09-28T01:05:04;5.30;;;1.70;;
69434;SDS011;56625;54.322;18.582;2022-09-28T01:07:36;4.50;;;1.40;;
69434;SDS011;56625;54.322;18.582;2022-09-28T01:10:04;4.40;;;1.30;;
69434;SDS011;56625;54.322;18.582;2022-09-28T01:12:31;5.30;;;1.80;;
69434;SDS011;56625;54.322;18.582;2022-09-28T01:14:57;5.50;;;1.90;;
69434;SDS011;56625;54.322;18.582;2022-09-28T01:17:38;4.90;;;1.80;;
69434;SDS011;56625;54.322;18.582;2022-09-28T01:23:53;6.00;;;1.70;;
69434;SDS011;56625;54.322;18.582;2022-09-28T01:26:52;6.00;;;1.90;;
69434;SDS011;56625;54.322;18.582;2022-09-28T01:29:47;5.20;;;1.70;;
69434;SDS011;56625;54.322;18.582;2022-09-28T01:35:19;4.60;;;1.20;;
69434;SDS011;56625;54.322;18.582;2022-09-28T01:38:04;4.00;;;1.20;;
69434;SDS011;56625;54.322;18.582;2022-09-28T01:40:35;5.00;;;1.50;;
69434;SDS011;56625;54.322;18.582;2022-09-28T01:43:10;4.90;;;1.30;;
69434;SDS011;56625;54.322;18.582;2022-09-28T01:45:43;4.40;;;1.20;;
69434;SDS011;56625;54.322;18.582;2022-09-28T01:48:25;4.60;;;1.00;;
69434;SDS011;56625;54.322;18.582;2022-09-28T01:50:59;3.60;;;0.90;;
69434;SDS011;56625;54.322;18.582;2022-09-28T01:53:48;4.70;;;0.90;;
69434;SDS011;56625;54.322;18.582;2022-09-28T01:56:23;5.10;;;1.10;;
69434;SDS011;56625;54.322;18.582;2022-09-28T01:58:59;4.20;;;1.10;;
69434;SDS011;56625;54.322;18.582;2022-09-28T02:01:58;4.10;;;1.00;;
69434;SDS011;56625;54.322;18.582;2022-09-28T02:04:32;4.80;;;1.20;;
69434;SDS011;56625;54.322;18.582;2022-09-28T02:10:23;4.70;;;1.10;;
69434;SDS011;56625;54.322;18.582;2022-09-28T02:13:02;5.80;;;1.20;;
69434;SDS011;56625;54.322;18.582;2022-09-28T02:16:08;6.00;;;1.40;;
69434;SDS011;56625;54.322;18.582;2022-09-28T02:18:40;6.30;;;1.40;;
69434;SDS011;56625;54.322;18.582;2022-09-28T02:21:16;5.60;;;1.30;;
69434;SDS011;56625;54.322;18.582;2022-09-28T02:23:54;4.90;;;1.40;;
69434;SDS011;56625;54.322;18.582;2022-09-28T02:26:28;4.70;;;1.20;;
69434;SDS011;56625;54.322;18.582;2022-09-28T02:28:58;5.40;;;1.30;;
69434;SDS011;56625;54.322;18.582;2022-09-28T02:31:25;5.00;;;1.40;;
69434;SDS011;56625;54.322;18.582;2022-09-28T02:33:55;4.60;;;1.30;;
69434;SDS011;56625;54.322;18.582;2022-09-28T02:36:25;6.00;;;1.70;;
69434;SDS011;56625;54.322;18.582;2022-09-28T02:38:53;5.30;;;1.50;;
69434;SDS011;56625;54.322;18.582;2022-09-28T02:41:28;5.40;;;1.60;;
69434;SDS011;56625;54.322;18.582;2022-09-28T02:44:30;5.70;;;2.30;;
69434;SDS011;56625;54.322;18.582;2022-09-28T02:47:41;6.20;;;2.20;;
69434;SDS011;56625;54.322;18.582;2022-09-28T03:00:08;6.10;;;2.20;;
69434;SDS011;56625;54.322;18.582;2022-09-28T03:06:20;6.00;;;2.10;;
69434;SDS011;56625;54.322;18.582;2022-09-28T03:09:00;6.40;;;2.00;;
69434;SDS011;56625;54.322;18.582;2022-09-28T03:11:38;6.80;;;2.10;;
69434;SDS011;56625;54.322;18.582;2022-09-28T03:14:16;6.30;;;1.90;;
69434;SDS011;56625;54.322;18.582;2022-09-28T03:16:44;6.40;;;2.20;;
69434;SDS011;56625;54.322;18.582;2022-09-28T03:19:12;7.10;;;2.30;;
69434;SDS011;56625;54.322;18.582;2022-09-28T03:21:41;6.90;;;2.30;;
69434;SDS011;56625;54.322;18.582;2022-09-28T03:24:07;6.20;;;2.30;;
69434;SDS011;56625;54.322;18.582;2022-09-28T03:26:37;6.50;;;2.20;;
69434;SDS011;56625;54.322;18.582;2022-09-28T03:29:05;9.60;;;4.60;;
69434;SDS011;56625;54.322;18.582;2022-09-28T03:31:31;11.30;;;5.10;;
69434;SDS011;56625;54.322;18.582;2022-09-28T03:33:58;6.50;;;2.70;;
69434;SDS011;56625;54.322;18.582;2022-09-28T03:36:25;7.40;;;2.90;;
69434;SDS011;56625;54.322;18.582;2022-09-28T03:38:52;6.60;;;2.50;;
69434;SDS011;56625;54.322;18.582;2022-09-28T03:41:23;6.90;;;2.40;;
69434;SDS011;56625;54.322;18.582;2022-09-28T03:43:50;7.20;;;2.50;;
69434;SDS011;56625;54.322;18.582;2022-09-28T03:46:16;7.20;;;2.70;;
69434;SDS011;56625;54.322;18.582;2022-09-28T03:48:43;8.40;;;3.10;;
69434;SDS011;56625;54.322;18.582;2022-09-28T03:51:11;8.50;;;3.30;;
69434;SDS011;56625;54.322;18.582;2022-09-28T03:53:38;8.00;;;3.20;;
69434;SDS011;56625;54.322;18.582;2022-09-28T03:56:14;7.50;;;3.10;;
69434;SDS011;56625;54.322;18.582;2022-09-28T03:58:41;7.80;;;3.10;;
69434;SDS011;56625;54.322;18.582;2022-09-28T04:01:10;6.90;;;3.00;;
69434;SDS011;56625;54.322;18.582;2022-09-28T04:03:44;9.00;;;3.40;;
69434;SDS011;56625;54.322;18.582;2022-09-28T04:06:11;8.10;;;3.40;;
69434;SDS011;56625;54.322;18.582;2022-09-28T04:08:38;7.50;;;3.20;;
69434;SDS011;56625;54.322;18.582;2022-09-28T04:11:05;7.80;;;3.20;;
69434;SDS011;56625;54.322;18.582;2022-09-28T04:13:31;8.30;;;3.30;;
69434;SDS011;56625;54.322;18.582;2022-09-28T04:15:59;8.00;;;3.40;;
69434;SDS011;56625;54.322;18.582;2022-09-28T04:18:27;8.20;;;3.20;;
69434;SDS011;56625;54.322;18.582;2022-09-28T04:21:20;7.30;;;3.10;;
69434;SDS011;56625;54.322;18.582;2022-09-28T04:23:46;9.00;;;3.50;;
69434;SDS011;56625;54.322;18.582;2022-09-28T04:26:23;8.60;;;3.60;;
69434;SDS011;56625;54.322;18.582;2022-09-28T04:28:50;10.10;;;4.00;;
69434;SDS011;56625;54.322;18.582;2022-09-28T04:31:37;8.20;;;3.30;;
69434;SDS011;56625;54.322;18.582;2022-09-28T04:34:07;8.60;;;3.60;;
69434;SDS011;56625;54.322;18.582;2022-09-28T04:36:34;9.40;;;3.90;;
69434;SDS011;56625;54.322;18.582;2022-09-28T04:39:00;9.70;;;3.40;;
69434;SDS011;56625;54.322;18.582;2022-09-28T04:41:27;8.70;;;3.80;;
69434;SDS011;56625;54.322;18.582;2022-09-28T04:43:53;9.80;;;3.90;;
69434;SDS011;56625;54.322;18.582;2022-09-28T04:46:19;10.00;;;3.90;;
69434;SDS011;56625;54.322;18.582;2022-09-28T04:48:46;10.00;;;4.10;;
69434;SDS011;56625;54.322;18.582;2022-09-28T04:51:13;10.20;;;4.50;;
69434;SDS011;56625;54.322;18.582;2022-09-28T04:53:39;10.70;;;4.50;;
69434;SDS011;56625;54.322;18.582;2022-09-28T04:56:09;9.10;;;4.10;;
69434;SDS011;56625;54.322;18.582;2022-09-28T04:58:37;9.70;;;4.40;;
69434;SDS011;56625;54.322;18.582;2022-09-28T05:01:07;9.00;;;4.30;;
69434;SDS011;56625;54.322;18.582;2022-09-28T05:03:36;10.90;;;4.40;;
69434;SDS011;56625;54.322;18.582;2022-09-28T05:06:04;9.20;;;4.30;;
69434;SDS011;56625;54.322;18.582;2022-09-28T05:08:32;10.10;;;4.40;;
69434;SDS011;56625;54.322;18.582;2022-09-28T05:11:02;10.50;;;4.70;;
69434;SDS011;56625;54.322;18.582;2022-09-28T05:13:33;10.30;;;4.40;;
69434;SDS011;56625;54.322;18.582;2022-09-28T05:16:07;7.80;;;3.50;;
69434;SDS011;56625;54.322;18.582;2022-09-28T05:18:35;8.90;;;3.60;;
69434;SDS011;56625;54.322;18.582;2022-09-28T05:21:01;9.30;;;3.50;;
69434;SDS011;56625;54.322;18.582;2022-09-28T05:23:28;10.60;;;3.80;;
69434;SDS011;56625;54.322;18.582;2022-09-28T05:25:55;10.30;;;3.90;;
69434;SDS011;56625;54.322;18.582;2022-09-28T05:28:25;11.20;;;4.00;;
69434;SDS011;56625;54.322;18.582;2022-09-28T05:30:58;11.20;;;4.00;;
69434;SDS011;56625;54.322;18.582;2022-09-28T05:33:26;8.70;;;3.70;;
69434;SDS011;56625;54.322;18.582;2022-09-28T05:35:53;8.00;;;3.20;;
69434;SDS011;56625;54.322;18.582;2022-09-28T05:38:26;8.90;;;3.60;;
69434;SDS011;56625;54.322;18.582;2022-09-28T05:40:53;8.60;;;3.40;;
69434;SDS011;56625;54.322;18.582;2022-09-28T05:43:20;7.60;;;3.10;;
69434;SDS011;56625;54.322;18.582;2022-09-28T05:45:46;7.90;;;3.30;;
69434;SDS011;56625;54.322;18.582;2022-09-28T05:48:20;7.60;;;3.00;;
69434;SDS011;56625;54.322;18.582;2022-09-28T05:50:50;8.00;;;3.10;;
69434;SDS011;56625;54.322;18.582;2022-09-28T05:53:17;7.70;;;2.90;;
69434;SDS011;56625;54.322;18.582;2022-09-28T05:55:44;6.90;;;2.60;;
69434;SDS011;56625;54.322;18.582;2022-09-28T05:58:11;6.50;;;2.20;;
69434;SDS011;56625;54.322;18.582;2022-09-28T06:00:37;7.60;;;3.00;;
69434;SDS011;56625;54.322;18.582;2022-09-28T06:03:10;8.20;;;3.20;;
69434;SDS011;56625;54.322;18.582;2022-09-28T06:05:38;6.60;;;2.70;;
69434;SDS011;56625;54.322;18.582;2022-09-28T06:08:06;5.80;;;2.00;;
69434;SDS011;56625;54.322;18.582;2022-09-28T06:10:35;6.70;;;2.30;;
69434;SDS011;56625;54.322;18.582;2022-09-28T06:13:01;6.00;;;2.10;;
69434;SDS011;56625;54.322;18.582;2022-09-28T06:15:29;6.60;;;2.00;;
69434;SDS011;56625;54.322;18.582;2022-09-28T06:18:04;6.20;;;2.10;;
69434;SDS011;56625;54.322;18.582;2022-09-28T06:20:35;5.50;;;2.10;;
69434;SDS011;56625;54.322;18.582;2022-09-28T06:23:03;5.90;;;2.40;;
69434;SDS011;56625;54.322;18.582;2022-09-28T06:25:29;6.30;;;2.20;;
69434;SDS011;56625;54.322;18.582;2022-09-28T06:27:59;7.60;;;2.50;;
69434;SDS011;56625;54.322;18.582;2022-09-28T06:30:29;6.60;;;2.40;;
69434;SDS011;56625;54.322;18.582;2022-09-28T06:32:59;6.60;;;2.40;;
69434;SDS011;56625;54.322;18.582;2022-09-28T06:35:28;6.90;;;2.40;;
69434;SDS011;56625;54.322;18.582;2022-09-28T06:37:59;5.90;;;2.10;;
69434;SDS011;56625;54.322;18.582;2022-09-28T06:40:26;5.70;;;2.00;;
69434;SDS011;56625;54.322;18.582;2022-09-28T06:43:01;8.20;;;2.30;;
69434;SDS011;56625;54.322;18.582;2022-09-28T06:45:32;6.70;;;2.50;;
69434;SDS011;56625;54.322;18.582;2022-09-28T06:47:59;6.10;;;2.40;;
69434;SDS011;56625;54.322;18.582;2022-09-28T06:50:35;7.60;;;2.80;;
69434;SDS011;56625;54.322;18.582;2022-09-28T06:53:04;6.70;;;2.60;;
69434;SDS011;56625;54.322;18.582;2022-09-28T06:55:31;6.30;;;2.50;;
69434;SDS011;56625;54.322;18.582;2022-09-28T06:58:03;5.90;;;2.30;;
69434;SDS011;56625;54.322;18.582;2022-09-28T07:00:34;7.00;;;2.40;;
69434;SDS011;56625;54.322;18.582;2022-09-28T07:03:12;7.20;;;2.90;;
69434;SDS011;56625;54.322;18.582;2022-09-28T07:05:43;8.60;;;2.50;;
69434;SDS011;56625;54.322;18.582;2022-09-28T07:08:17;7.20;;;1.90;;
69434;SDS011;56625;54.322;18.582;2022-09-28T07:10:46;7.20;;;2.90;;
69434;SDS011;56625;54.322;18.582;2022-09-28T07:13:15;6.60;;;2.50;;
69434;SDS011;56625;54.322;18.582;2022-09-28T07:16:02;7.40;;;3.00;;
69434;SDS011;56625;54.322;18.582;2022-09-28T07:18:28;7.10;;;3.40;;
69434;SDS011;56625;54.322;18.582;2022-09-28T07:20:55;6.30;;;2.70;;
69434;SDS011;56625;54.322;18.582;2022-09-28T07:23:23;7.80;;;3.10;;
69434;SDS011;56625;54.322;18.582;2022-09-28T07:25:52;8.30;;;3.30;;
69434;SDS011;56625;54.322;18.582;2022-09-28T07:28:19;7.60;;;3.20;;
69434;SDS011;56625;54.322;18.582;2022-09-28T07:30:46;6.90;;;3.30;;
69434;SDS011;56625;54.322;18.582;2022-09-28T07:33:14;6.40;;;2.70;;
69434;SDS011;56625;54.322;18.582;2022-09-28T07:35:52;7.80;;;2.90;;
69434;SDS011;56625;54.322;18.582;2022-09-28T07:38:23;6.90;;;3.20;;
69434;SDS011;56625;54.322;18.582;2022-09-28T07:40:51;6.70;;;2.70;;
69434;SDS011;56625;54.322;18.582;2022-09-28T07:43:37;7.70;;;2.80;;
69434;SDS011;56625;54.322;18.582;2022-09-28T07:46:18;7.00;;;3.10;;
69434;SDS011;56625;54.322;18.582;2022-09-28T07:48:56;8.10;;;3.00;;
69434;SDS011;56625;54.322;18.582;2022-09-28T07:51:24;6.70;;;3.00;;
69434;SDS011;56625;54.322;18.582;2022-09-28T07:53:50;8.50;;;3.30;;
69434;SDS011;56625;54.322;18.582;2022-09-28T07:56:19;6.80;;;2.90;;
69434;SDS011;56625;54.322;18.582;2022-09-28T07:58:47;6.80;;;2.90;;
69434;SDS011;56625;54.322;18.582;2022-09-28T08:01:14;10.00;;;3.30;;
69434;SDS011;56625;54.322;18.582;2022-09-28T08:03:43;7.10;;;3.10;;
69434;SDS011;56625;54.322;18.582;2022-09-28T08:06:12;8.70;;;3.90;;
69434;SDS011;56625;54.322;18.582;2022-09-28T08:08:41;8.20;;;3.30;;
69434;SDS011;56625;54.322;18.582;2022-09-28T08:11:12;8.10;;;3.20;;
69434;SDS011;56625;54.322;18.582;2022-09-28T08:13:42;7.80;;;3.40;;
69434;SDS011;56625;54.322;18.582;2022-09-28T08:16:10;7.30;;;3.40;;
69434;SDS011;56625;54.322;18.582;2022-09-28T08:18:37;7.60;;;3.60;;
69434;SDS011;56625;54.322;18.582;2022-09-28T08:21:04;7.90;;;3.30;;
69434;SDS011;56625;54.322;18.582;2022-09-28T08:23:50;8.20;;;3.50;;
69434;SDS011;56625;54.322;18.582;2022-09-28T08:26:17;8.60;;;3.40;;
69434;SDS011;56625;54.322;18.582;2022-09-28T08:28:44;7.90;;;3.40;;
69434;SDS011;56625;54.322;18.582;2022-09-28T08:31:12;9.20;;;4.00;;
69434;SDS011;56625;54.322;18.582;2022-09-28T08:33:39;8.00;;;3.20;;
69434;SDS011;56625;54.322;18.582;2022-09-28T08:36:08;8.30;;;3.50;;
69434;SDS011;56625;54.322;18.582;2022-09-28T08:38:35;8.20;;;3.10;;
69434;SDS011;56625;54.322;18.582;2022-09-28T08:44:12;7.50;;;3.20;;
69434;SDS011;56625;54.322;18.582;2022-09-28T08:46:54;7.70;;;3.30;;
69434;SDS011;56625;54.322;18.582;2022-09-28T08:52:19;7.60;;;3.30;;
69434;SDS011;56625;54.322;18.582;2022-09-28T08:55:01;7.10;;;3.00;;
69434;SDS011;56625;54.322;18.582;2022-09-28T08:57:42;8.50;;;3.10;;
69434;SDS011;56625;54.322;18.582;2022-09-28T09:00:18;7.50;;;3.30;;
69434;SDS011;56625;54.322;18.582;2022-09-28T09:02:46;8.70;;;3.60;;
69434;SDS011;56625;54.322;18.582;2022-09-28T09:05:16;9.20;;;3.70;;
69434;SDS011;56625;54.322;18.582;2022-09-28T09:08:06;8.10;;;4.00;;
69434;SDS011;56625;54.322;18.582;2022-09-28T09:10:51;7.80;;;3.60;;
69434;SDS011;56625;54.322;18.582;2022-09-28T09:17:03;7.40;;;3.50;;
69434;SDS011;56625;54.322;18.582;2022-09-28T09:19:50;9.10;;;3.80;;
69434;SDS011;56625;54.322;18.582;2022-09-28T09:22:38;9.00;;;3.60;;
69434;SDS011;56625;54.322;18.582;2022-09-28T09:25:19;6.20;;;2.20;;
69434;SDS011;56625;54.322;18.582;2022-09-28T09:30:40;6.80;;;2.90;;
69434;SDS011;56625;54.322;18.582;2022-09-28T09:36:37;8.60;;;3.20;;
69434;SDS011;56625;54.322;18.582;2022-09-28T09:42:06;8.80;;;3.10;;
69434;SDS011;56625;54.322;18.582;2022-09-28T09:44:41;6.30;;;2.30;;
69434;SDS011;56625;54.322;18.582;2022-09-28T09:47:20;7.40;;;3.20;;
69434;SDS011;56625;54.322;18.582;2022-09-28T09:50:11;7.60;;;2.80;;
69434;SDS011;56625;54.322;18.582;2022-09-28T09:52:53;6.40;;;2.50;;
69434;SDS011;56625;54.322;18.582;2022-09-28T09:55:35;6.20;;;2.80;;
69434;SDS011;56625;54.322;18.582;2022-09-28T09:58:11;7.20;;;3.20;;
69434;SDS011;56625;54.322;18.582;2022-09-28T10:00:43;9.20;;;3.60;;
69434;SDS011;56625;54.322;18.582;2022-09-28T10:03:25;8.30;;;3.40;;
69434;SDS011;56625;54.322;18.582;2022-09-28T10:05:59;7.80;;;3.20;;
69434;SDS011;56625;54.322;18.582;2022-09-28T10:08:33;7.90;;;3.50;;
69434;SDS011;56625;54.322;18.582;2022-09-28T10:11:16;7.30;;;2.80;;
69434;SDS011;56625;54.322;18.582;2022-09-28T10:13:47;7.10;;;3.20;;
69434;SDS011;56625;54.322;18.582;2022-09-28T10:16:17;8.50;;;3.50;;
69434;SDS011;56625;54.322;18.582;2022-09-28T10:18:45;8.60;;;3.90;;
69434;SDS011;56625;54.322;18.582;2022-09-28T10:21:19;8.80;;;4.20;;
69434;SDS011;56625;54.322;18.582;2022-09-28T10:23:54;7.30;;;3.60;;
69434;SDS011;56625;54.322;18.582;2022-09-28T10:26:34;8.30;;;3.10;;
69434;SDS011;56625;54.322;18.582;2022-09-28T10:29:13;7.00;;;3.20;;
69434;SDS011;56625;54.322;18.582;2022-09-28T10:31:52;6.60;;;2.90;;
69434;SDS011;56625;54.322;18.582;2022-09-28T10:34:27;9.20;;;2.80;;
69434;SDS011;56625;54.322;18.582;2022-09-28T10:37:09;5.50;;;1.70;;
69434;SDS011;56625;54.322;18.582;2022-09-28T10:39:51;6.00;;;2.20;;
69434;SDS011;56625;54.322;18.582;2022-09-28T10:42:24;5.00;;;1.70;;
69434;SDS011;56625;54.322;18.582;2022-09-28T10:44:59;5.70;;;2.10;;
69434;SDS011;56625;54.322;18.582;2022-09-28T10:47:30;5.60;;;2.00;;
69434;SDS011;56625;54.322;18.582;2022-09-28T10:49:58;7.10;;;2.80;;
69434;SDS011;56625;54.322;18.582;2022-09-28T10:52:39;5.50;;;2.20;;
69434;SDS011;56625;54.322;18.582;2022-09-28T10:57:47;6.50;;;2.20;;
69434;SDS011;56625;54.322;18.582;2022-09-28T11:03:18;6.40;;;2.40;;
69434;SDS011;56625;54.322;18.582;2022-09-28T11:06:08;5.80;;;2.00;;
69434;SDS011;56625;54.322;18.582;2022-09-28T11:08:40;6.10;;;2.50;;
69434;SDS011;56625;54.322;18.582;2022-09-28T11:11:12;23.10;;;1.90;;
69434;SDS011;56625;54.322;18.582;2022-09-28T11:13:46;5.80;;;1.80;;
69434;SDS011;56625;54.322;18.582;2022-09-28T11:16:30;5.60;;;2.20;;
69434;SDS011;56625;54.322;18.582;2022-09-28T11:19:04;5.40;;;1.80;;
69434;SDS011;56625;54.322;18.582;2022-09-28T11:21:47;7.10;;;1.90;;
69434;SDS011;56625;54.322;18.582;2022-09-28T11:26:47;5.00;;;1.50;;
69434;SDS011;56625;54.322;18.582;2022-09-28T11:31:52;5.80;;;2.20;;
69434;SDS011;56625;54.322;18.582;2022-09-28T11:34:31;6.40;;;2.40;;
69434;SDS011;56625;54.322;18.582;2022-09-28T11:46:38;4.20;;;1.10;;
69434;SDS011;56625;54.322;18.582;2022-09-28T11:52:10;6.40;;;1.80;;
69434;SDS011;56625;54.322;18.582;2022-09-28T11:55:17;3.50;;;1.10;;
69434;SDS011;56625;54.322;18.582;2022-09-28T11:57:59;4.30;;;1.20;;
69434;SDS011;56625;54.322;18.582;2022-09-28T12:00:33;4.90;;;1.40;;
69434;SDS011;56625;54.322;18.582;2022-09-28T12:03:29;4.20;;;1.40;;
69434;SDS011;56625;54.322;18.582;2022-09-28T12:06:05;6.00;;;1.70;;
69434;SDS011;56625;54.322;18.582;2022-09-28T12:08:54;4.20;;;1.10;;
69434;SDS011;56625;54.322;18.582;2022-09-28T12:11:35;2.40;;;0.60;;
69434;SDS011;56625;54.322;18.582;2022-09-28T12:14:17;3.70;;;0.90;;
69434;SDS011;56625;54.322;18.582;2022-09-28T12:19:58;3.00;;;0.70;;
69434;SDS011;56625;54.322;18.582;2022-09-28T12:22:41;2.90;;;0.60;;
69434;SDS011;56625;54.322;18.582;2022-09-28T12:25:16;2.60;;;0.70;;
69434;SDS011;56625;54.322;18.582;2022-09-28T12:28:03;4.90;;;0.80;;
69434;SDS011;56625;54.322;18.582;2022-09-28T12:30:35;2.70;;;0.60;;
69434;SDS011;56625;54.322;18.582;2022-09-28T12:33:12;3.30;;;0.80;;
69434;SDS011;56625;54.322;18.582;2022-09-28T12:38:58;2.50;;;0.70;;
69434;SDS011;56625;54.322;18.582;2022-09-28T12:45:21;2.30;;;0.50;;
69434;SDS011;56625;54.322;18.582;2022-09-28T12:51:23;3.70;;;0.60;;
69434;SDS011;56625;54.322;18.582;2022-09-28T12:54:04;2.80;;;0.60;;
69434;SDS011;56625;54.322;18.582;2022-09-28T12:57:16;2.20;;;0.50;;
69434;SDS011;56625;54.322;18.582;2022-09-28T13:00:04;5.20;;;0.90;;
69434;SDS011;56625;54.322;18.582;2022-09-28T13:06:19;2.60;;;0.50;;
69434;SDS011;56625;54.322;18.582;2022-09-28T13:11:54;4.70;;;0.90;;
69434;SDS011;56625;54.322;18.582;2022-09-28T13:14:52;3.20;;;0.90;;
69434;SDS011;56625;54.322;18.582;2022-09-28T13:20:12;4.90;;;1.00;;
69434;SDS011;56625;54.322;18.582;2022-09-28T13:25:43;4.40;;;0.90;;
69434;SDS011;56625;54.322;18.582;2022-09-28T13:28:22;4.20;;;1.00;;
69434;SDS011;56625;54.322;18.582;2022-09-28T13:30:54;4.20;;;1.00;;
69434;SDS011;56625;54.322;18.582;2022-09-28T13:33:33;3.90;;;1.00;;
69434;SDS011;56625;54.322;18.582;2022-09-28T13:36:34;4.50;;;1.30;;
69434;SDS011;56625;54.322;18.582;2022-09-28T13:38:54;6.30;;;1.30;;
69434;SDS011;56625;54.322;18.582;2022-09-28T13:41:28;7.00;;;1.20;;
69434;SDS011;56625;54.322;18.582;2022-09-28T13:44:16;3.70;;;1.00;;
69434;SDS011;56625;54.322;18.582;2022-09-28T13:50:17;5.30;;;1.00;;
69434;SDS011;56625;54.322;18.582;2022-09-28T13:59:07;4.60;;;1.20;;
69434;SDS011;56625;54.322;18.582;2022-09-28T14:01:45;3.90;;;0.90;;
69434;SDS011;56625;54.322;18.582;2022-09-28T14:04:24;4.00;;;0.90;;
69434;SDS011;56625;54.322;18.582;2022-09-28T14:07:20;6.10;;;1.00;;
69434;SDS011;56625;54.322;18.582;2022-09-28T14:10:17;4.20;;;1.00;;
69434;SDS011;56625;54.322;18.582;2022-09-28T14:13:03;5.80;;;1.30;;
69434;SDS011;56625;54.322;18.582;2022-09-28T14:15:42;4.70;;;1.30;;
69434;SDS011;56625;54.322;18.582;2022-09-28T14:18:19;4.40;;;1.10;;
69434;SDS011;56625;54.322;18.582;2022-09-28T14:21:33;4.30;;;1.00;;
69434;SDS011;56625;54.322;18.582;2022-09-28T14:24:39;5.00;;;1.30;;
69434;SDS011;56625;54.322;18.582;2022-09-28T14:27:56;4.30;;;1.10;;
69434;SDS011;56625;54.322;18.582;2022-09-28T14:30:44;3.60;;;0.90;;
69434;SDS011;56625;54.322;18.582;2022-09-28T14:33:26;3.10;;;0.80;;
69434;SDS011;56625;54.322;18.582;2022-09-28T14:36:02;2.70;;;0.70;;
69434;SDS011;56625;54.322;18.582;2022-09-28T14:38:46;3.10;;;0.80;;
69434;SDS011;56625;54.322;18.582;2022-09-28T14:41:39;3.40;;;0.80;;
69434;SDS011;56625;54.322;18.582;2022-09-28T14:44:13;3.50;;;0.90;;
69434;SDS011;56625;54.322;18.582;2022-09-28T14:46:47;4.00;;;0.90;;
69434;SDS011;56625;54.322;18.582;2022-09-28T14:54:37;4.80;;;0.80;;
69434;SDS011;56625;54.322;18.582;2022-09-28T14:57:22;3.60;;;0.70;;
69434;SDS011;56625;54.322;18.582;2022-09-28T14:59:52;3.90;;;0.70;;
69434;SDS011;56625;54.322;18.582;2022-09-28T15:02:23;4.00;;;1.00;;
69434;SDS011;56625;54.322;18.582;2022-09-28T15:05:14;3.60;;;1.00;;
69434;SDS011;56625;54.322;18.582;2022-09-28T15:07:52;4.50;;;1.20;;
69434;SDS011;56625;54.322;18.582;2022-09-28T15:10:28;4.50;;;1.10;;
69434;SDS011;56625;54.322;18.582;2022-09-28T15:13:02;4.00;;;0.70;;
69434;SDS011;56625;54.322;18.582;2022-09-28T15:15:34;3.70;;;0.70;;
69434;SDS011;56625;54.322;18.582;2022-09-28T15:18:21;3.90;;;0.90;;
69434;SDS011;56625;54.322;18.582;2022-09-28T15:20:53;2.90;;;0.90;;
69434;SDS011;56625;54.322;18.582;2022-09-28T15:25:55;4.90;;;1.00;;
69434;SDS011;56625;54.322;18.582;2022-09-28T15:28:22;4.00;;;1.10;;
69434;SDS011;56625;54.322;18.582;2022-09-28T15:30:50;4.80;;;1.00;;
69434;SDS011;56625;54.322;18.582;2022-09-28T15:33:32;5.60;;;1.20;;
69434;SDS011;56625;54.322;18.582;2022-09-28T15:36:22;5.20;;;1.60;;
69434;SDS011;56625;54.322;18.582;2022-09-28T15:41:27;6.40;;;1.50;;
69434;SDS011;56625;54.322;18.582;2022-09-28T15:44:07;3.90;;;1.10;;
69434;SDS011;56625;54.322;18.582;2022-09-28T15:46:45;5.30;;;1.20;;
69434;SDS011;56625;54.322;18.582;2022-09-28T15:49:25;7.40;;;1.60;;
69434;SDS011;56625;54.322;18.582;2022-09-28T15:52:04;5.30;;;1.20;;
69434;SDS011;56625;54.322;18.582;2022-09-28T15:54:43;5.90;;;1.60;;
69434;SDS011;56625;54.322;18.582;2022-09-28T15:57:32;4.50;;;1.40;;
69434;SDS011;56625;54.322;18.582;2022-09-28T16:00:26;4.80;;;1.50;;
69434;SDS011;56625;54.322;18.582;2022-09-28T16:03:00;4.60;;;1.20;;
69434;SDS011;56625;54.322;18.582;2022-09-28T16:06:03;4.30;;;1.30;;
69434;SDS011;56625;54.322;18.582;2022-09-28T16:14:05;4.70;;;1.60;;
69434;SDS011;56625;54.322;18.582;2022-09-28T16:16:46;8.10;;;2.10;;
69434;SDS011;56625;54.322;18.582;2022-09-28T16:19:22;5.10;;;1.40;;
69434;SDS011;56625;54.322;18.582;2022-09-28T16:21:58;4.60;;;1.40;;
69434;SDS011;56625;54.322;18.582;2022-09-28T16:24:33;5.40;;;1.70;;
69434;SDS011;56625;54.322;18.582;2022-09-28T16:30:27;6.30;;;2.00;;
69434;SDS011;56625;54.322;18.582;2022-09-28T16:32:57;5.60;;;1.90;;
69434;SDS011;56625;54.322;18.582;2022-09-28T16:38:13;6.20;;;1.80;;
69434;SDS011;56625;54.322;18.582;2022-09-28T16:40:49;8.40;;;2.20;;
69434;SDS011;56625;54.322;18.582;2022-09-28T16:43:24;7.20;;;2.20;;
69434;SDS011;56625;54.322;18.582;2022-09-28T16:45:56;7.60;;;2.10;;
69434;SDS011;56625;54.322;18.582;2022-09-28T16:48:29;5.20;;;1.80;;
69434;SDS011;56625;54.322;18.582;2022-09-28T16:50:58;6.90;;;1.90;;
69434;SDS011;56625;54.322;18.582;2022-09-28T16:53:25;5.70;;;1.90;;
69434;SDS011;56625;54.322;18.582;2022-09-28T16:56:11;9.00;;;2.30;;
69434;SDS011;56625;54.322;18.582;2022-09-28T16:58:39;6.60;;;2.60;;
69434;SDS011;56625;54.322;18.582;2022-09-28T17:01:09;6.80;;;2.00;;
69434;SDS011;56625;54.322;18.582;2022-09-28T17:03:37;8.80;;;2.20;;
69434;SDS011;56625;54.322;18.582;2022-09-28T17:06:10;8.50;;;3.40;;
69434;SDS011;56625;54.322;18.582;2022-09-28T17:08:37;7.80;;;2.20;;
69434;SDS011;56625;54.322;18.582;2022-09-28T17:11:04;7.10;;;2.50;;
69434;SDS011;56625;54.322;18.582;2022-09-28T17:13:51;8.20;;;2.60;;
69434;SDS011;56625;54.322;18.582;2022-09-28T17:16:20;7.30;;;2.60;;
69434;SDS011;56625;54.322;18.582;2022-09-28T17:19:24;7.10;;;2.50;;
69434;SDS011;56625;54.322;18.582;2022-09-28T17:21:52;8.50;;;2.40;;
69434;SDS011;56625;54.322;18.582;2022-09-28T17:24:19;7.50;;;2.70;;
69434;SDS011;56625;54.322;18.582;2022-09-28T17:26:48;10.20;;;4.20;;
69434;SDS011;56625;54.322;18.582;2022-09-28T17:29:17;12.00;;;4.50;;